Mount Pleasant, MI

2:51 PM EDT on August 25, 2016 (GMT -0400)
Mt. Pleasant | | Change Station

Elev 761 ft 43.59 °N, 84.75 °W | Updated 1 minute ago

Scattered Clouds
Scattered Clouds
83.3 °F
Feels Like 86 °F
N
9.9
Wind Variable Wind from NW

Today
High -- | Low -- °F
--% Chance of Precip.
Yesterday
High -- | Low -- °F
Precip. -- in
Pressure 29.97 in
Visibility 10.0 miles
Clouds Scattered Clouds 3100 ft
Heat Index 86 °F
Dew Point 68 °F
Humidity 60%
Rainfall 0.11 in
Snow Depth Not available.
6:55 AM 8:25 PM
Last Quarter, 43% visible
METAR KMOP 251838Z AUTO 30006KT 10SM SCT031 28/20 A2997 RMK AO2 T02790199
Pressure 29.97 in
Visibility 10.0 miles
Clouds Scattered Clouds 3100 ft
Heat Index 86 °F
Dew Point 68 °F
Humidity 60%
Rainfall 0.11 in
Snow Depth Not available.
6:55 AM 8:25 PM
Last Quarter, 43% visible
METAR KMOP 251838Z AUTO 30006KT 10SM SCT031 28/20 A2997 RMK AO2 T02790199
A tropical disturbance pushing toward the Bahamas, is expected to develop into a tropical depression or storm, and will likely target Florida and the Gulf Coast this weekend into next week.

Right now, the disturbance remains a broad area of low pressure pushing through the Dominican Republic and Haiti, headed toward the southeast Bahamas. Rainfall totals over 3 inches (with locally higher amounts) are expected in HispaƱiola, particularly over elevated terrain.

10-Day Weather Forecast

Almanac

Astronomy

Aug. 25, 2016 Rise Set
Actual Time
Civil Twilight
Nautical Twilight
Astronomical Twilight
Moon
Length of Visible Light
Length of Day
Tomorrow will be .
, % of the Moon is Illuminated

Today's Extremes

State Highs State Lows

Community

WunderPhotos

Upload Photos

1,934,890 photos uploaded!

WunderBlog® & News

Nearby

Air Quality

  Air Quality AQ Index Pollutant
Not available.

Snow Depth

Station Depth Elevation

Earthquake Activity

City Distance Mag. Time & Date
Minimum magnitude displayed is 2.5.

Coastal Water Temperatures

Place Temperature

Stations

Nearby Weather Stations

Station Location Temp. Windchill Dew Point Humidity Wind Precip. Elev Updated Type
                   

Watches & Warnings

There are currently no watches in effect.